createdAt,value
2019-02-23T00:01:18.764Z,79.70
2019-02-23T00:03:52.445Z,79.90
2019-02-23T00:06:29.737Z,79.50
2019-02-23T00:09:00.026Z,79.60
2019-02-23T00:11:32.905Z,80.10
2019-02-23T00:14:05.366Z,80.20
2019-02-23T00:16:38.065Z,80.40
2019-02-23T00:19:10.948Z,80.60
2019-02-23T00:21:43.747Z,80.40
2019-02-23T00:24:16.846Z,80.30
2019-02-23T00:26:49.024Z,80.20
2019-02-23T00:29:21.484Z,80.60
2019-02-23T00:31:53.825Z,80.80
2019-02-23T00:34:25.966Z,81.00
2019-02-23T00:36:59.006Z,80.70
2019-02-23T00:39:31.806Z,80.40
2019-02-23T00:42:04.246Z,80.80
2019-02-23T00:44:36.865Z,81.00
2019-02-23T00:47:10.028Z,81.20
2019-02-23T00:49:42.024Z,81.40
2019-02-23T00:52:14.704Z,81.30
2019-02-23T00:54:47.265Z,81.10
2019-02-23T00:57:19.345Z,81.20
2019-02-23T00:59:51.804Z,81.60
2019-02-23T01:02:25.364Z,81.80
2019-02-23T01:04:58.866Z,82.30
2019-02-23T01:07:32.205Z,81.40
2019-02-23T01:10:04.285Z,80.90
2019-02-23T01:12:36.507Z,80.90
2019-02-23T01:15:13.925Z,81.10
2019-02-23T01:17:46.866Z,81.30
2019-02-23T01:20:19.669Z,81.20
2019-02-23T01:22:52.244Z,81.20
2019-02-23T01:25:25.245Z,81.80
2019-02-23T01:27:57.667Z,81.30
2019-02-23T01:30:30.146Z,81.00
2019-02-23T01:33:02.825Z,80.70
2019-02-23T01:35:36.307Z,80.80
2019-02-23T01:38:09.357Z,80.80
2019-02-23T01:40:43.086Z,80.90
2019-02-23T01:43:15.045Z,80.60
2019-02-23T01:45:48.026Z,80.70
2019-02-23T01:48:20.964Z,81.40
2019-02-23T01:50:54.244Z,81.50
2019-02-23T01:53:27.285Z,81.80
2019-02-23T01:55:59.845Z,81.40
2019-02-23T01:58:32.764Z,81.50
2019-02-23T02:01:06.225Z,81.50
2019-02-23T02:03:39.145Z,81.90
2019-02-23T02:06:11.305Z,82.30
2019-02-23T02:08:44.367Z,81.90
2019-02-23T02:11:17.764Z,82.10
2019-02-23T02:13:50.485Z,82.80
2019-02-23T02:16:24.085Z,82.30
2019-02-23T02:18:56.887Z,82.60
2019-02-23T02:21:29.164Z,82.90
2019-02-23T02:24:02.165Z,82.40
2019-02-23T02:26:34.664Z,82.60
2019-02-23T02:29:07.726Z,82.30
2019-02-23T02:31:39.867Z,82.30
2019-02-23T02:34:19.312Z,82.30
2019-02-23T02:36:51.506Z,81.80
2019-02-23T02:39:24.664Z,81.90
2019-02-23T02:41:56.207Z,81.90
2019-02-23T02:44:29.044Z,81.80
2019-02-23T02:47:02.087Z,81.60
2019-02-23T02:49:35.006Z,82.10
2019-02-23T02:52:08.066Z,82.10
2019-02-23T02:54:40.207Z,82.40
2019-02-23T02:57:13.186Z,82.80
2019-02-23T02:59:45.025Z,82.80
2019-02-23T03:02:18.265Z,82.50
2019-02-23T03:04:50.785Z,82.80
2019-02-23T03:07:23.316Z,82.70
2019-02-23T03:09:55.384Z,82.50
2019-02-23T03:12:27.685Z,82.50
2019-02-23T03:15:00.285Z,83.00
2019-02-23T03:17:32.785Z,83.40
2019-02-23T03:20:05.672Z,83.30
2019-02-23T03:22:38.266Z,82.90
2019-02-23T03:25:10.308Z,82.50
2019-02-23T03:27:43.345Z,82.50
2019-02-23T03:30:15.989Z,82.90
2019-02-23T03:32:48.571Z,83.10
2019-02-23T03:35:21.086Z,82.50
2019-02-23T03:37:53.384Z,82.50
2019-02-23T03:40:26.025Z,82.60
2019-02-23T03:42:58.515Z,82.70
2019-02-23T03:45:30.926Z,83.20
2019-02-23T03:48:03.746Z,83.80
2019-02-23T03:50:36.032Z,83.90
2019-02-23T03:53:08.565Z,83.30
2019-02-23T03:55:41.504Z,83.40
2019-02-23T03:58:13.825Z,83.00
2019-02-23T04:00:46.066Z,82.70
2019-02-23T04:03:19.723Z,83.10
2019-02-23T04:05:51.665Z,83.30
2019-02-23T04:08:24.305Z,83.50
2019-02-23T04:10:57.206Z,83.70
2019-02-23T04:13:29.509Z,83.90
2019-02-23T04:16:02.126Z,83.30
2019-02-23T04:18:35.465Z,83.40
2019-02-23T04:21:08.284Z,83.80
2019-02-23T04:23:40.823Z,84.00
2019-02-23T04:26:13.486Z,84.20
2019-02-23T04:28:46.465Z,83.90
2019-02-23T04:31:18.330Z,84.40
2019-02-23T04:33:51.125Z,84.40
2019-02-23T04:36:24.305Z,84.50
2019-02-23T04:38:57.384Z,84.70
2019-02-23T04:41:29.688Z,84.60
2019-02-23T04:44:02.225Z,84.50
2019-02-23T04:46:35.084Z,84.70
2019-02-23T04:49:07.684Z,84.40
2019-02-23T04:51:40.505Z,84.30
2019-02-23T04:54:12.724Z,84.20
2019-02-23T04:56:44.687Z,84.20
2019-02-23T04:59:17.965Z,84.40
2019-02-23T05:01:50.064Z,84.30
2019-02-23T05:04:22.524Z,84.00
2019-02-23T05:06:56.009Z,84.50
2019-02-23T05:09:29.445Z,84.80
2019-02-23T05:12:02.905Z,84.60
2019-02-23T05:14:36.246Z,83.60
2019-02-23T05:17:08.365Z,84.00
2019-02-23T05:19:40.645Z,84.40
2019-02-23T05:22:13.225Z,84.20
2019-02-23T05:24:45.685Z,84.40
2019-02-23T05:27:17.910Z,84.20
2019-02-23T05:29:49.885Z,84.40
2019-02-23T05:32:22.270Z,84.30
2019-02-23T05:34:54.605Z,84.20
2019-02-23T05:37:26.825Z,84.30
2019-02-23T05:39:59.226Z,84.40
2019-02-23T05:42:32.273Z,84.10
2019-02-23T05:45:04.885Z,84.40
2019-02-23T05:47:37.306Z,84.20
2019-02-23T05:50:09.921Z,84.00
2019-02-23T05:52:43.364Z,83.80
2019-02-23T05:55:17.265Z,83.90
2019-02-23T05:57:50.527Z,84.30
2019-02-23T06:00:24.205Z,84.30
2019-02-23T06:02:56.784Z,84.50
2019-02-23T06:05:29.546Z,84.40
2019-02-23T06:08:02.991Z,84.60
2019-02-23T06:10:35.026Z,84.80
2019-02-23T06:13:07.386Z,84.40
2019-02-23T06:15:39.765Z,84.60
2019-02-23T06:18:12.209Z,84.70
2019-02-23T06:20:44.467Z,84.40
2019-02-23T06:23:16.813Z,84.30
2019-02-23T06:25:49.705Z,84.40
2019-02-23T06:28:21.725Z,84.40
2019-02-23T06:30:54.206Z,84.50
2019-02-23T06:33:27.145Z,84.50
2019-02-23T06:35:59.266Z,84.40
2019-02-23T06:38:31.628Z,83.90
2019-02-23T06:41:05.166Z,84.30
2019-02-23T06:43:37.445Z,84.20
2019-02-23T06:46:09.865Z,84.20
2019-02-23T06:48:43.184Z,84.50
2019-02-23T06:51:15.446Z,84.70
2019-02-23T06:53:47.284Z,85.20
2019-02-23T06:56:19.626Z,85.20
2019-02-23T06:58:51.992Z,85.10
2019-02-23T07:01:25.107Z,84.80
2019-02-23T07:03:57.866Z,84.60
2019-02-23T07:06:30.924Z,84.70
2019-02-23T07:09:03.045Z,84.10
2019-02-23T07:11:35.287Z,84.30
2019-02-23T07:14:08.145Z,84.30
2019-02-23T07:16:40.086Z,84.40
2019-02-23T07:19:12.566Z,84.60
2019-02-23T07:21:44.865Z,84.40
2019-02-23T07:24:17.505Z,84.60
2019-02-23T07:26:50.024Z,84.40
2019-02-23T07:29:22.603Z,84.40
2019-02-23T07:31:55.307Z,84.90
2019-02-23T07:34:27.830Z,85.30
2019-02-23T07:37:01.108Z,86.00
2019-02-23T07:39:33.327Z,85.90
2019-02-23T07:42:05.904Z,86.00
2019-02-23T07:44:38.825Z,85.80
2019-02-23T07:47:12.207Z,85.60
2019-02-23T07:49:46.063Z,85.60
2019-02-23T07:52:25.973Z,85.80
2019-02-23T07:54:53.538Z,85.60
2019-02-23T07:57:26.606Z,85.60
2019-02-23T07:59:59.149Z,85.30
2019-02-23T08:02:31.346Z,85.00
2019-02-23T08:05:04.425Z,85.00
2019-02-23T08:07:39.710Z,84.90
2019-02-23T08:10:12.283Z,85.20
2019-02-23T08:12:44.865Z,85.20
2019-02-23T08:15:17.927Z,85.00
2019-02-23T08:17:50.884Z,84.50
2019-02-23T08:20:23.665Z,84.60
2019-02-23T08:22:56.666Z,84.30
2019-02-23T08:25:29.560Z,84.10
2019-02-23T08:28:01.868Z,84.10
2019-02-23T08:30:34.865Z,84.10
2019-02-23T08:33:08.145Z,83.80
2019-02-23T08:35:41.145Z,83.90
2019-02-23T08:38:14.746Z,83.80
2019-02-23T08:40:47.565Z,83.50
2019-02-23T08:43:20.797Z,83.30
2019-02-23T08:45:53.226Z,83.20
2019-02-23T08:48:27.265Z,83.10
2019-02-23T08:50:59.826Z,82.40
2019-02-23T08:53:32.786Z,81.60
2019-02-23T08:56:05.813Z,81.30
2019-02-23T08:58:38.268Z,80.40
2019-02-23T09:01:11.321Z,80.20
2019-02-23T09:03:44.203Z,81.20
2019-02-23T09:06:17.162Z,81.70
2019-02-23T09:08:50.242Z,82.00
2019-02-23T09:11:22.842Z,82.30
2019-02-23T09:13:55.801Z,81.40
2019-02-23T09:16:28.802Z,80.80
2019-02-23T09:19:01.342Z,81.30
2019-02-23T09:21:33.722Z,80.30
2019-02-23T09:24:07.061Z,79.50
2019-02-23T09:26:40.111Z,79.30
2019-02-23T09:29:13.162Z,78.90
2019-02-23T09:31:45.782Z,78.20
2019-02-23T09:34:18.342Z,78.60
2019-02-23T09:36:50.899Z,78.50
2019-02-23T09:39:23.342Z,78.00
2019-02-23T09:42:07.018Z,77.60
2019-02-23T09:44:29.621Z,77.60
2019-02-23T09:47:02.802Z,76.40
2019-02-23T09:49:35.002Z,76.00
2019-02-23T09:52:07.161Z,76.10
2019-02-23T09:54:40.181Z,77.20
2019-02-23T09:57:13.776Z,76.40
2019-02-23T09:59:47.483Z,75.70
2019-02-23T10:02:21.041Z,75.00
2019-02-23T10:04:53.882Z,74.90
2019-02-23T10:07:26.002Z,74.30
2019-02-23T10:09:58.901Z,73.10
2019-02-23T10:12:31.582Z,73.50
2019-02-23T10:15:04.042Z,72.80
2019-02-23T10:17:36.541Z,71.90
2019-02-23T10:20:10.102Z,71.80
2019-02-23T10:22:42.667Z,71.40
2019-02-23T10:25:15.102Z,69.70
2019-02-23T10:27:47.866Z,69.80
2019-02-23T10:30:20.151Z,68.80
2019-02-23T10:32:52.844Z,68.40
2019-02-23T10:35:25.882Z,68.90
2019-02-23T10:37:58.661Z,68.40
2019-02-23T10:40:30.961Z,68.40
2019-02-23T10:43:04.281Z,68.40
2019-02-23T10:45:37.062Z,67.70
2019-02-23T10:48:10.542Z,68.50
2019-02-23T10:50:44.122Z,66.90
2019-02-23T10:53:16.982Z,67.20
2019-02-23T10:55:49.522Z,66.70
2019-02-23T10:58:22.363Z,66.10
2019-02-23T11:00:55.902Z,64.70
2019-02-23T11:03:28.021Z,65.10
2019-02-23T11:06:00.823Z,65.10
2019-02-23T11:08:33.722Z,65.30
2019-02-23T11:11:06.762Z,64.80
2019-02-23T11:13:39.702Z,63.90
2019-02-23T11:16:12.121Z,63.70
2019-02-23T11:18:45.202Z,63.80
2019-02-23T11:21:18.600Z,61.90
2019-02-23T11:23:50.780Z,62.30
2019-02-23T11:26:23.661Z,62.00
2019-02-23T11:28:56.148Z,62.20
2019-02-23T11:31:29.443Z,61.10
2019-02-23T11:34:01.600Z,59.80
2019-02-23T11:36:34.982Z,58.00
2019-02-23T11:39:07.721Z,57.70
2019-02-23T11:41:40.520Z,56.90
2019-02-23T11:44:14.100Z,56.30
2019-02-23T11:46:59.789Z,55.80
2019-02-23T11:49:20.080Z,55.50
2019-02-23T11:51:52.722Z,56.50
2019-02-23T11:54:25.180Z,55.10
2019-02-23T11:56:57.401Z,54.60
2019-02-23T11:59:30.081Z,54.30
2019-02-23T12:02:02.461Z,54.50
2019-02-23T12:04:34.841Z,53.30
2019-02-23T12:07:07.681Z,52.90
2019-02-23T12:09:41.183Z,52.90
2019-02-23T12:12:13.321Z,52.70
2019-02-23T12:14:45.624Z,52.40
2019-02-23T12:17:18.381Z,50.90
2019-02-23T12:19:50.701Z,50.90
2019-02-23T12:22:22.981Z,50.70
2019-02-23T12:24:55.599Z,50.30
2019-02-23T12:27:28.523Z,49.90
2019-02-23T12:30:00.800Z,48.60
2019-02-23T12:32:33.825Z,48.00
2019-02-23T12:35:06.221Z,46.50
2019-02-23T12:37:39.195Z,45.40
2019-02-23T12:40:11.800Z,46.00
2019-02-23T12:42:44.660Z,44.60
2019-02-23T12:45:17.160Z,45.30
2019-02-23T12:47:51.230Z,44.90
2019-02-23T12:50:23.521Z,43.30
2019-02-23T12:52:56.379Z,44.50
2019-02-23T12:55:29.340Z,44.80
2019-02-23T12:58:02.060Z,45.10
2019-02-23T13:00:34.421Z,45.40
2019-02-23T13:03:07.278Z,45.70
2019-02-23T13:05:41.200Z,46.00
2019-02-23T13:08:14.519Z,45.70
2019-02-23T13:10:47.320Z,46.50
2019-02-23T13:13:33.241Z,47.30
2019-02-23T13:16:15.962Z,48.00
2019-02-23T13:19:36.260Z,48.30
2019-02-23T13:22:48.822Z,48.40
2019-02-23T13:25:47.260Z,48.30
2019-02-23T13:28:44.629Z,48.60
2019-02-23T13:31:49.981Z,48.70
2019-02-23T13:35:11.961Z,48.50
2019-02-23T13:38:21.119Z,47.80
2019-02-23T13:41:40.581Z,47.40
2019-02-23T13:44:44.360Z,46.70
2019-02-23T13:48:11.479Z,47.70
2019-02-23T13:51:16.819Z,46.20
2019-02-23T13:54:38.425Z,43.80
2019-02-23T13:57:12.420Z,43.50
2019-02-23T14:00:11.121Z,43.30
2019-02-23T14:03:10.346Z,43.70
2019-02-23T14:06:13.099Z,43.80
2019-02-23T14:09:23.268Z,43.00
2019-02-23T14:12:39.321Z,40.10
2019-02-23T14:15:57.039Z,38.40
2019-02-23T14:18:54.941Z,38.60
2019-02-23T14:22:02.540Z,39.20
2019-02-23T14:25:07.200Z,39.40
2019-02-23T14:28:14.560Z,38.30
2019-02-23T14:31:14.741Z,37.70
2019-02-23T14:34:21.664Z,36.80
2019-02-23T14:37:21.641Z,37.10
2019-02-23T14:40:36.020Z,36.60
2019-02-23T14:43:32.640Z,36.20
2019-02-23T14:47:05.862Z,35.60
2019-02-23T14:50:19.882Z,35.90
2019-02-23T14:53:24.007Z,35.90
2019-02-23T14:56:36.488Z,35.90
2019-02-23T14:59:45.621Z,36.70
2019-02-23T15:02:48.180Z,36.40
2019-02-23T15:05:38.680Z,35.50
2019-02-23T15:08:40.941Z,35.80
2019-02-23T15:11:48.660Z,35.70
2019-02-23T15:14:55.479Z,36.20
2019-02-23T15:17:48.921Z,36.10
2019-02-23T15:20:56.601Z,35.80
2019-02-23T15:24:09.760Z,36.40
2019-02-23T15:27:23.781Z,37.80
2019-02-23T15:30:25.301Z,36.60
2019-02-23T15:33:24.420Z,36.20
2019-02-23T15:36:15.159Z,37.10
2019-02-23T15:39:13.560Z,38.00
2019-02-23T15:42:24.508Z,37.80
2019-02-23T15:45:34.603Z,37.20
2019-02-23T15:48:29.719Z,37.30
2019-02-23T15:51:02.110Z,37.30
2019-02-23T15:53:34.949Z,37.40
2019-02-23T15:56:07.102Z,37.10
2019-02-23T15:58:39.960Z,37.90
2019-02-23T16:01:12.881Z,37.90
2019-02-23T16:03:45.940Z,38.30
2019-02-23T16:06:19.061Z,38.70
2019-02-23T16:08:50.659Z,38.60
2019-02-23T16:11:23.479Z,39.20
2019-02-23T16:13:56.980Z,37.30
2019-02-23T16:16:29.943Z,37.20
2019-02-23T16:19:02.422Z,37.50
2019-02-23T16:21:35.062Z,37.60
2019-02-23T16:24:08.341Z,38.00
2019-02-23T16:26:40.922Z,37.80
2019-02-23T16:29:13.620Z,38.60
2019-02-23T16:31:46.839Z,38.70
2019-02-23T16:34:19.684Z,38.90
2019-02-23T16:36:52.141Z,39.20
2019-02-23T16:39:24.367Z,39.10
2019-02-23T16:41:57.142Z,39.10
2019-02-23T16:44:29.301Z,39.70
2019-02-23T16:47:01.721Z,39.70
2019-02-23T16:49:33.800Z,41.20
2019-02-23T16:52:09.128Z,41.00
2019-02-23T16:54:40.962Z,41.90
2019-02-23T16:57:13.707Z,43.10
2019-02-23T16:59:46.244Z,44.10
2019-02-23T17:02:18.740Z,42.30
2019-02-23T17:04:53.767Z,42.50
2019-02-23T17:07:26.380Z,43.20
2019-02-23T17:09:59.424Z,43.80
2019-02-23T17:12:32.940Z,44.10
2019-02-23T17:15:06.622Z,44.00
2019-02-23T17:17:38.840Z,44.50
2019-02-23T17:20:11.928Z,45.30
2019-02-23T17:22:44.138Z,45.70
2019-02-23T17:25:16.339Z,41.70
2019-02-23T17:27:49.474Z,41.30
2019-02-23T17:30:22.102Z,41.10
2019-02-23T17:32:56.032Z,41.30
2019-02-23T17:35:28.800Z,41.40
2019-02-23T17:38:15.485Z,39.80
2019-02-23T17:40:36.719Z,40.10
2019-02-23T17:43:09.740Z,41.40
2019-02-23T17:45:42.339Z,41.70
2019-02-23T17:48:14.639Z,41.10
2019-02-23T17:50:47.301Z,41.40
2019-02-23T17:53:20.100Z,43.10
2019-02-23T17:55:53.160Z,43.90
2019-02-23T17:58:24.019Z,45.00
2019-02-23T18:00:56.821Z,45.20
2019-02-23T18:03:29.961Z,46.30
2019-02-23T18:06:02.221Z,46.70
2019-02-23T18:08:35.040Z,46.80
2019-02-23T18:11:08.340Z,46.90
2019-02-23T18:13:40.461Z,47.20
2019-02-23T18:16:12.599Z,47.50
2019-02-23T18:18:45.620Z,47.00
2019-02-23T18:21:17.741Z,46.00
2019-02-23T18:23:50.241Z,46.60
2019-02-23T18:26:23.320Z,45.90
2019-02-23T18:28:55.320Z,46.40
2019-02-23T18:31:27.988Z,47.10
2019-02-23T18:34:00.841Z,48.30
2019-02-23T18:36:32.739Z,48.80
2019-02-23T18:39:06.780Z,49.10
2019-02-23T18:41:39.063Z,48.90
2019-02-23T18:44:12.140Z,48.80
2019-02-23T18:46:44.980Z,48.70
2019-02-23T18:49:17.280Z,48.90
2019-02-23T18:51:49.659Z,49.20
2019-02-23T18:54:23.221Z,49.10
2019-02-23T18:56:56.041Z,49.50
2019-02-23T18:59:28.199Z,48.60
2019-02-23T19:02:00.700Z,48.10
2019-02-23T19:04:33.061Z,48.20
2019-02-23T19:07:06.400Z,48.40
2019-02-23T19:09:39.181Z,48.00
2019-02-23T19:12:12.020Z,47.40
2019-02-23T19:14:44.541Z,47.00
2019-02-23T19:17:17.325Z,47.10
2019-02-23T19:19:50.540Z,47.70
2019-02-23T19:22:22.759Z,48.10
2019-02-23T19:24:55.501Z,48.50
2019-02-23T19:27:27.740Z,48.60
2019-02-23T19:30:00.640Z,48.60
2019-02-23T19:32:33.400Z,48.50
2019-02-23T19:35:05.482Z,48.70
2019-02-23T19:37:38.859Z,49.00
2019-02-23T19:40:11.802Z,48.70
2019-02-23T19:42:44.482Z,48.60
2019-02-23T19:45:17.054Z,48.60
2019-02-23T19:47:50.061Z,48.50
2019-02-23T19:50:29.640Z,48.50
2019-02-23T19:53:01.966Z,48.90
2019-02-23T19:55:34.341Z,49.10
2019-02-23T19:58:07.342Z,48.80
2019-02-23T20:00:40.681Z,48.80
2019-02-23T20:03:13.059Z,49.30
2019-02-23T20:05:46.580Z,49.40
2019-02-23T20:08:19.725Z,49.60
2019-02-23T20:10:51.700Z,49.90
2019-02-23T20:13:23.860Z,50.60
2019-02-23T20:15:56.704Z,50.70
2019-02-23T20:18:28.880Z,51.00
2019-02-23T20:21:00.781Z,50.70
2019-02-23T20:23:32.920Z,50.70
2019-02-23T20:26:05.881Z,50.60
2019-02-23T20:28:38.641Z,51.00
2019-02-23T20:31:11.162Z,51.10
2019-02-23T20:33:43.400Z,51.30
2019-02-23T20:36:16.683Z,50.90
2019-02-23T20:38:48.923Z,50.70
2019-02-23T20:41:22.500Z,51.10
2019-02-23T20:43:54.823Z,51.50
2019-02-23T20:46:27.166Z,51.40
2019-02-23T20:49:00.120Z,51.40
2019-02-23T20:51:34.104Z,51.10
2019-02-23T20:54:06.901Z,51.30
2019-02-23T20:56:39.079Z,51.50
2019-02-23T20:59:11.339Z,51.70
2019-02-23T21:01:44.402Z,51.70
2019-02-23T21:04:16.379Z,51.60
2019-02-23T21:06:49.240Z,51.30
2019-02-23T21:09:22.282Z,50.60
2019-02-23T21:11:55.442Z,50.20
2019-02-23T21:14:27.920Z,50.30
2019-02-23T21:17:01.321Z,50.30
2019-02-23T21:19:33.983Z,50.20
2019-02-23T21:22:07.026Z,50.40
2019-02-23T21:24:39.400Z,50.60
2019-02-23T21:27:13.241Z,50.70
2019-02-23T21:29:46.580Z,50.70
2019-02-23T21:32:19.380Z,50.70
2019-02-23T21:34:51.560Z,51.40
2019-02-23T21:37:24.360Z,50.80
2019-02-23T21:39:57.560Z,51.10
2019-02-23T21:42:30.462Z,51.30
2019-02-23T21:45:02.623Z,51.50
2019-02-23T21:47:35.400Z,51.80
2019-02-23T21:50:08.241Z,52.00
2019-02-23T21:52:41.812Z,51.90
2019-02-23T21:55:14.364Z,51.70
2019-02-23T21:57:47.440Z,51.50
2019-02-23T22:00:20.366Z,51.60
2019-02-23T22:02:53.420Z,51.60
2019-02-23T22:05:26.808Z,51.60
2019-02-23T22:07:59.301Z,52.10
2019-02-23T22:10:31.642Z,52.50
2019-02-23T22:13:03.756Z,52.60
2019-02-23T22:15:37.560Z,52.80
2019-02-23T22:18:09.608Z,52.90
2019-02-23T22:20:43.167Z,52.80
2019-02-23T22:23:15.881Z,52.70
2019-02-23T22:25:48.630Z,52.70
2019-02-23T22:28:20.537Z,52.80
2019-02-23T22:30:53.284Z,52.80
2019-02-23T22:33:26.102Z,52.70
2019-02-23T22:35:59.020Z,52.80
2019-02-23T22:38:32.361Z,52.80
2019-02-23T22:41:04.921Z,52.80
2019-02-23T22:43:38.441Z,52.70
2019-02-23T22:46:11.819Z,52.70
2019-02-23T22:48:44.040Z,52.40
2019-02-23T22:51:17.123Z,52.80
2019-02-23T22:53:49.819Z,52.80
2019-02-23T22:56:22.361Z,53.10
2019-02-23T22:58:54.843Z,53.10
2019-02-23T23:01:27.581Z,53.30
2019-02-23T23:04:00.823Z,53.30
2019-02-23T23:06:33.222Z,53.60
2019-02-23T23:09:08.019Z,53.60
2019-02-23T23:11:40.323Z,53.80
2019-02-23T23:14:12.920Z,54.20
2019-02-23T23:16:45.580Z,54.50
2019-02-23T23:19:17.760Z,54.50
2019-02-23T23:21:49.945Z,54.60
2019-02-23T23:24:23.481Z,54.50
2019-02-23T23:26:56.138Z,54.60
2019-02-23T23:29:28.699Z,54.70
2019-02-23T23:32:01.362Z,54.70
2019-02-23T23:34:34.040Z,55.00
2019-02-23T23:37:06.980Z,54.90
2019-02-23T23:39:39.280Z,55.40
2019-02-23T23:42:12.139Z,55.20
2019-02-23T23:44:45.219Z,55.10
2019-02-23T23:47:18.020Z,54.60
2019-02-23T23:49:50.320Z,54.50
2019-02-23T23:52:22.681Z,54.40
2019-02-23T23:54:56.060Z,54.90
2019-02-23T23:57:29.080Z,55.00
